FW4751 Weather Reports


Display with metric or nautical units.
time (UTC)temp
F
wind
direction
speed
MPH
gust
MPH
rain 1hr
in
rain 24hr
in
rain mn
in
humidity
%
barometer
mb
20221129044503 50 293 3.0 7.0 0.00 0.00 0.00 75 1015.6
20221129044003 50 293 3.0 9.0 0.00 0.00 0.00 74 1015.5
20221129043503 50 315 4.0 9.0 0.00 0.00 0.00 74 1015.5
20221129043003 50 315 3.0 8.0 0.00 0.00 0.00 74 1015.6
20221129042523 50 293 4.0 9.0 0.00 0.00 0.00 74 1015.5
20221129042003 50 293 4.0 9.0 0.00 0.00 0.00 74 1015.4
20221129041503 50 293 4.0 10.0 0.00 0.00 0.00 73 1015.4
20221129041003 50 315 4.0 10.0 0.00 0.00 0.00 73 1015.4
20221129040503 50 293 3.0 8.0 0.00 0.00 0.00 73 1015.2
20221129040003 50 315 3.0 7.0 0.00 0.00 0.00 73 1015.2
20221129035503 50 293 3.0 8.0 0.00 0.00 0.00 73 1015.1
20221129035003 50 293 2.0 9.0 0.00 0.00 0.00 73 1015.1
20221129034503 50 293 2.0 5.0 0.00 0.00 0.00 72 1015.2
20221129034023 51 338 2.0 6.0 0.00 0.00 0.00 72 1015.2
20221129033503 51 315 3.0 6.0 0.00 0.00 0.00 72 1015.1
20221129033003 51 293 3.0 6.0 0.00 0.00 0.00 72 1015.1
20221129032503 51 315 4.0 8.0 0.00 0.00 0.00 72 1015.1
20221129032003 51 315 4.0 10.0 0.00 0.00 0.00 72 1014.9
20221129031503 51 293 3.0 7.0 0.00 0.00 0.00 72 1014.9
20221129031003 51 293 4.0 9.0 0.00 0.00 0.00 72 1014.9
20221129030503 51 293 4.0 9.0 0.00 0.00 0.00 72 1014.8
20221129030005 51 293 4.0 10.0 0.00 0.00 0.00 72 1014.8
20221129025505 51 293 5.0 9.0 0.00 0.00 0.00 72 1014.9
20221129025004 51 293 3.0 9.0 0.00 0.00 0.00 71 1014.9
20221129024505 51 293 5.0 10.0 0.00 0.00 0.00 71 1014.8
20221129024024 51 293 5.0 10.0 0.00 0.00 0.00 71 1014.9
20221129023525 51 315 4.0 9.0 0.00 0.00 0.00 71 1014.8
20221129023005 51 315 3.0 6.0 0.00 0.00 0.00 70 1014.7
20221129022524 51 315 3.0 6.0 0.00 0.00 0.00 70 1014.8
20221129022004 51 293 4.0 8.0 0.00 0.00 0.00 69 1014.8
20221129021505 51 293 4.0 9.0 0.00 0.00 0.00 69 1014.9
20221129021005 52 293 3.0 8.0 0.00 0.00 0.00 68 1014.9
20221129020505 52 315 4.0 9.0 0.00 0.00 0.00 68 1014.9
20221129020004 52 315 5.0 12.0 0.00 0.00 0.00 68 1014.9
20221129015525 52 293 4.0 9.0 0.00 0.00 0.00 68 1014.8
20221129015024 52 315 3.0 7.0 0.00 0.00 0.00 68 1014.9
20221129014524 52 293 4.0 7.0 0.00 0.00 0.00 67 1014.9
20221129014004 52 293 4.0 9.0 0.00 0.00 0.00 67 1014.9
20221129013505 52 315 3.0 9.0 0.00 0.00 0.00 66 1014.8
20221129013004 52 293 5.0 12.0 0.00 0.00 0.00 65 1015.0
20221129012504 52 315 4.0 10.0 0.00 0.00 0.00 64 1014.8
20221129012004 53 293 4.0 9.0 0.00 0.00 0.00 64 1014.9
20221129011504 53 293 5.0 12.0 0.00 0.00 0.00 62 1015.0
20221129010505 53 293 6.0 16.0 0.00 0.00 0.00 60 1014.9
20221129010004 54 315 4.0 13.0 0.00 0.00 0.00 59 1014.9
20221129005504 54 293 5.0 12.0 0.00 0.00 0.00 59 1014.9
20221129005004 54 315 3.0 10.0 0.00 0.00 0.00 59 1014.7
20221129004504 54 293 4.0 10.0 0.00 0.00 0.00 60 1014.7
20221129004004 54 293 5.0 13.0 0.00 0.00 0.00 59 1014.8
20221129003504 54 293 4.0 10.0 0.00 0.00 0.00 60 1014.8
20221129003045 55 315 5.0 11.0 0.00 0.00 0.00 59 1014.8
20221129002504 55 315 5.0 11.0 0.00 0.00 0.00 59 1014.6
20221129002004 55 315 6.0 15.0 0.00 0.00 0.00 59 1014.6
20221129001505 55 293 5.0 11.0 0.00 0.00 0.00 60 1014.6
20221129001024 55 315 6.0 12.0 0.00 0.00 0.00 59 1014.6
20221129000504 55 293 6.0 12.0 0.00 0.00 0.00 59 1014.7
20221129000004 56 315 7.0 14.0 0.00 0.00 0.00 59 1014.8
20221128235504 56 293 5.0 12.0 0.00 0.00 0.00 58 1014.7
20221128235004 56 315 4.0 11.0 0.00 0.00 0.00 58 1014.7
20221128234504 56 293 7.0 18.0 0.00 0.00 0.00 57 1014.8
20221128234004 56 315 6.0 13.0 0.00 0.00 0.00 56 1014.7
20221128233505 56 293 6.0 13.0 0.00 0.00 0.00 55 1014.9
20221128233007 56 338 6.0 17.0 0.00 0.00 0.00 55 1015.0
20221128232504 57 315 7.0 15.0 0.00 0.00 0.00 55 1015.0
20221128232004 57 338 5.0 12.0 0.00 0.00 0.00 54 1015.1
20221128231505 57 315 6.0 12.0 0.00 0.00 0.00 54 1014.9
20221128231004 57 315 5.0 13.0 0.00 0.00 0.00 53 1014.8
20221128230504 57 315 7.0 15.0 0.00 0.00 0.00 52 1014.8
20221128230024 57 293 7.0 14.0 0.00 0.00 0.00 52 1014.7
20221128225504 58 315 6.0 14.0 0.00 0.00 0.00 49 1014.7
20221128225004 58 315 7.0 15.0 0.00 0.00 0.00 48 1014.8
20221128224504 58 315 6.0 15.0 0.00 0.00 0.00 47 1014.8
20221128224004 58 338 7.0 16.0 0.00 0.00 0.00 46 1015.0
20221128223504 59 338 8.0 18.0 0.00 0.00 0.00 44 1015.0
20221128223004 59 338 6.0 14.0 0.00 0.00 0.00 44 1014.9
20221128222504 60 338 6.0 11.0 0.00 0.00 0.00 43 1014.8
20221128222004 60 315 6.0 17.0 0.00 0.00 0.00 43 1014.9
20221128221504 60 338 6.0 13.0 0.00 0.00 0.00 42 1014.8
20221128221004 60 315 4.0 15.0 0.00 0.00 0.00 43 1014.6
20221128220507 60 315 5.0 12.0 0.00 0.00 0.00 44 1014.6
20221128220004 60 315 6.0 13.0 0.00 0.00 0.00 45 1014.8
20221128215504 61 293 4.0 12.0 0.00 0.00 0.00 49 1014.7
20221128215004 60 315 5.0 12.0 0.00 0.00 0.00 48 1014.7
20221128214504 60 315 4.0 10.0 0.00 0.00 0.00 50 1014.8
20221128214004 60 315 6.0 11.0 0.00 0.00 0.00 51 1014.8
20221128213504 60 315 6.0 13.0 0.00 0.00 0.00 53 1014.9
20221128213024 59 293 8.0 17.0 0.00 0.00 0.00 54 1015.2
20221128212524 60 293 7.0 16.0 0.00 0.00 0.00 53 1015.2
20221128212004 60 293 9.0 22.0 0.00 0.00 0.00 53 1015.3
20221128211504 60 293 9.0 22.0 0.00 0.00 0.00 55 1015.4
20221128211044 60 315 7.0 15.0 0.00 0.00 0.00 56 1015.4
20221128210504 60 293 9.0 16.0 0.00 0.00 0.00 55 1015.4
20221128210004 61 293 6.0 15.0 0.00 0.00 0.00 54 1015.3
20221128205504 61 315 4.0 11.0 0.00 0.00 0.00 56 1015.5
20221128205004 61 293 6.0 14.0 0.00 0.00 0.00 57 1015.6
20221128204504 60 293 7.0 17.0 0.00 0.00 0.00 58 1015.6
20221128204004 61 315 6.0 12.0 0.00 0.00 0.00 57 1015.7
20221128203504 61 315 4.0 12.0 0.00 0.00 0.00 59 1015.7
20221128203003 61 0 5.0 11.0 0.00 0.00 0.00 58 1015.7
20221128202504 61 293 5.0 12.0 0.00 0.00 0.00 58 1015.7
20221128202004 60 315 4.0 9.0 0.00 0.00 0.00 59 1015.8
20221128201504 60 338 4.0 9.0 0.00 0.00 0.00 61 1015.9
20221128201004 60 0 3.0 8.0 0.00 0.00 0.00 61 1015.9
20221128200523 60 45 4.0 10.0 0.00 0.00 0.00 61 1016.0
20221128200004 60 338 4.0 9.0 0.00 0.00 0.00 61 1015.9
20221128195504 60 293 4.0 13.0 0.00 0.00 0.00 61 1015.9
20221128195044 60 338 5.0 13.0 0.00 0.00 0.00 63 1016.1
20221128194523 59 45 3.0 7.0 0.00 0.00 0.00 66 1016.1
20221128194004 59 338 4.0 7.0 0.00 0.00 0.00 65 1016.2
20221128193504 59 293 3.0 9.0 0.00 0.00 0.00 65 1016.2
20221128193003 59 338 4.0 10.0 0.00 0.00 0.00 65 1016.3
20221128192504 60 338 4.0 10.0 0.00 0.00 0.00 64 1016.3
20221128192023 60 0 3.0 5.0 0.00 0.00 0.00 65 1016.4
20221128191504 59 338 4.0 10.0 0.00 0.00 0.00 66 1016.6
20221128191003 59 338 4.0 9.0 0.00 0.00 0.00 67 1016.6
20221128190527 58 338 3.0 8.0 0.00 0.00 0.00 70 1016.7
20221128190004 58 338 3.0 6.0 0.00 0.00 0.00 70 1016.8
20221128185504 58 0 2.0 7.0 0.00 0.00 0.00 72 1016.8
20221128185044 57 315 2.0 5.0 0.00 0.00 0.00 76 1016.9
20221128184523 56 68 2.0 5.0 0.00 0.00 0.00 78 1016.8
20221128184004 56 45 2.0 5.0 0.00 0.00 0.00 78 1017.1
20221128183504 56 45 2.0 5.0 0.00 0.00 0.00 77 1017.0
20221128183004 56 113 2.0 5.0 0.00 0.00 0.00 76 1017.0
20221128182504 57 45 3.0 7.0 0.00 0.00 0.00 75 1017.0
20221128182004 57 45 3.0 6.0 0.00 0.00 0.00 74 1017.0
20221128181503 56 45 2.0 5.0 0.00 0.00 0.00 76 1016.9
20221128181023 55 45 2.0 3.0 0.00 0.00 0.00 77 1017.0
20221128180503 55 68 2.0 5.0 0.00 0.00 0.00 78 1017.0
20221128180003 55 45 2.0 4.0 0.00 0.00 0.00 79 1017.0
20221128175503 54 45 3.0 5.0 0.00 0.00 0.00 79 1016.9
20221128175003 54 90 2.0 4.0 0.00 0.00 0.00 79 1017.0
20221128174503 54 0 1.0 3.0 0.00 0.00 0.00 79 1017.1
20221128174003 54 45 2.0 4.0 0.00 0.00 0.00 79 1017.1
20221128173503 53 180 1.0 3.0 0.00 0.00 0.00 80 1017.1
20221128173023 53 90 1.0 2.0 0.00 0.00 0.00 80 1017.2
20221128172504 53 270 1.0 2.0 0.00 0.00 0.00 81 1017.2
20221128172003 53 203 1.0 2.0 0.00 0.00 0.00 82 1017.3
20221128171503 52 158 1.0 2.0 0.00 0.00 0.00 83 1017.2
20221128171023 51 135 1.0 2.0 0.00 0.00 0.00 85 1017.3
20221128170503 50 135 1.0 2.0 0.00 0.00 0.00 88 1017.3
20221128170003 49 0.0 2.0 0.00 0.00 0.00 90 1017.2
20221128165504 48 45 1.0 3.0 0.00 0.00 0.00 91 1017.2
20221128165023 47 45 1.0 2.0 0.00 0.00 0.00 92 1017.3
20221128164503 46 45 2.0 3.0 0.00 0.00 0.00 93 1017.3
20221128164003 46 45 2.0 4.0 0.00 0.00 0.00 94 1017.3
20221128163503 45 23 1.0 3.0 0.00 0.00 0.00 95 1017.1
20221128163003 44 113 1.0 3.0 0.00 0.00 0.00 95 1016.9
20221128162503 44 23 1.0 2.0 0.00 0.00 0.00 95 1016.9
20221128162003 43 45 1.0 4.0 0.00 0.00 0.00 95 1016.9
20221128161503 42 338 2.0 4.0 0.00 0.00 0.00 95 1016.8
20221128161003 41 135 1.0 2.0 0.00 0.00 0.00 96 1016.9
20221128160503 41 158 1.0 3.0 0.00 0.00 0.00 95 1016.8
20221128160003 41 180 1.0 2.0 0.00 0.00 0.00 95 1016.7
20221128155503 40 0.0 1.0 0.00 0.00 0.00 95 1016.8
20221128155003 40 180 1.0 2.0 0.00 0.00 0.00 95 1016.8
20221128154503 39 180 1.0 2.0 0.00 0.00 0.00 95 1016.8
20221128154003 39 0.0 1.0 0.00 0.00 0.00 95 1016.7
20221128153503 38 0.0 2.0 0.00 0.00 0.00 95 1016.6
20221128153003 38 293 1.0 1.0 0.00 0.00 0.00 95 1016.7
20221128152503 38 0.0 1.0 0.00 0.00 0.00 95 1016.7
20221128152003 38 225 1.0 1.0 0.00 0.00 0.00 95 1016.7
20221128151503 38 270 1.0 2.0 0.00 0.00 0.00 95 1016.6
20221128151023 38 270 1.0 2.0 0.00 0.00 0.00 95 1016.8
20221128150503 38 0.0 1.0 0.00 0.00 0.00 95 1016.8
20221128150003 38 0.0 1.0 0.00 0.00 0.00 95 1016.8
20221128145523 38 0.0 1.0 0.00 0.00 0.00 95 1016.7
20221128145003 38 248 1.0 2.0 0.00 0.00 0.00 95 1016.7
20221128144503 38 0.0 1.0 0.00 0.00 0.00 95 1016.6
20221128144003 38 0.0 2.0 0.00 0.00 0.00 95 1016.7
20221128143503 38 0.0 1.0 0.00 0.00 0.00 95 1016.6
20221128143003 38 293 1.0 3.0 0.00 0.00 0.00 95 1016.4
20221128142503 38 0.0 2.0 0.00 0.00 0.00 95 1016.3
20221128142002 38 248 1.0 2.0 0.00 0.00 0.00 95 1016.4
20221128141502 38 0.0 1.0 0.00 0.00 0.00 95 1016.3
20221128141002 38 248 1.0 2.0 0.00 0.00 0.00 95 1016.2
20221128140505 38 0.0 1.0 0.00 0.00 0.00 95 1016.1
20221128140025 38 293 1.0 2.0 0.00 0.00 0.00 95 1016.1
20221128135504 38 0.0 1.0 0.00 0.00 0.00 95 1016.1
20221128135105 38 248 1.0 2.0 0.00 0.00 0.00 95 1015.9
20221128134505 38 315 1.0 2.0 0.00 0.00 0.00 95 1015.8
20221128134024 38 23 1.0 2.0 0.00 0.00 0.00 95 1015.8
20221128133505 38 0.0 2.0 0.00 0.00 0.00 95 1015.8
20221128133005 38 315 1.0 1.0 0.00 0.00 0.00 95 1015.8
20221128132505 38 0.0 2.0 0.00 0.00 0.00 95 1015.6
20221128132005 38 180 1.0 2.0 0.00 0.00 0.00 95 1015.6
20221128131504 38 203 1.0 2.0 0.00 0.00 0.00 95 1015.7
20221128131005 38 0.0 1.0 0.00 0.00 0.00 95 1015.7
20221128130525 38 0.0 1.0 0.00 0.00 0.00 94 1015.8
20221128130004 38 0.0 1.0 0.00 0.00 0.00 95 1015.8
20221128125504 38 315 1.0 1.0 0.00 0.00 0.00 94 1015.8
20221128125004 38 0.0 1.0 0.00 0.00 0.00 94 1015.7
20221128124504 38 225 1.0 2.0 0.00 0.00 0.00 94 1015.7
20221128124004 38 0.0 1.0 0.00 0.00 0.00 94 1015.7
20221128123505 38 0.0 1.0 0.00 0.00 0.00 94 1015.8
20221128123007 38 0.0 1.0 0.00 0.00 0.00 94 1015.6
20221128122505 38 0.0 1.0 0.00 0.00 0.00 94 1015.7
20221128122024 38 293 1.0 2.0 0.00 0.00 0.00 94 1015.8
20221128121504 38 0.0 1.0 0.00 0.00 0.00 94 1015.8
20221128121005 39 0.0 1.0 0.00 0.00 0.00 94 1015.7
20221128120504 39 0.0 1.0 0.00 0.00 0.00 94 1015.7
20221128120005 39 293 1.0 2.0 0.00 0.00 0.00 94 1015.6
20221128115504 39 180 1.0 2.0 0.00 0.00 0.00 94 1015.7
20221128115004 39 0.0 1.0 0.00 0.00 0.00 94 1015.8
20221128114505 39 0.0 1.0 0.00 0.00 0.00 94 1015.7
20221128114004 39 293 1.0 2.0 0.00 0.00 0.00 94 1015.6
20221128113525 39 293 1.0 2.0 0.00 0.00 0.00 94 1015.8
20221128113004 39 315 1.0 2.0 0.00 0.00 0.00 94 1015.9
20221128112524 39 338 1.0 2.0 0.00 0.00 0.00 94 1015.8
20221128112004 39 0.0 1.0 0.00 0.00 0.00 94 1015.7
20221128111504 39 248 1.0 2.0 0.00 0.00 0.00 94 1015.6
20221128111004 39 293 1.0 2.0 0.00 0.00 0.00 94 1015.7
20221128110504 39 0.0 1.0 0.00 0.00 0.00 94 1015.7
20221128110045 39 293 1.0 2.0 0.00 0.00 0.00 94 1015.6
20221128105504 39 0.0 1.0 0.00 0.00 0.00 94 1015.6
20221128105004 39 293 1.0 2.0 0.00 0.00 0.00 94 1015.7
20221128104504 39 0.0 1.0 0.00 0.00 0.00 94 1015.6
20221128104004 39 0.0 1.0 0.00 0.00 0.00 94 1015.5
20221128103504 39 0.0 1.0 0.00 0.00 0.00 94 1015.6
20221128103004 40 0.0 1.0 0.00 0.00 0.00 94 1015.7
20221128102504 40 0.0 1.0 0.00 0.00 0.00 94 1015.7
20221128102024 40 0.0 1.0 0.00 0.00 0.00 94 1015.5
20221128101504 40 0.0 1.0 0.00 0.00 0.00 94 1015.6
20221128101004 40 0.0 1.0 0.00 0.00 0.00 94 1015.6
20221128100606 40 0.0 2.0 0.00 0.00 0.00 93 1015.7
20221128100004 40 0.0 1.0 0.00 0.00 0.00 94 1015.6
20221128095504 40 135 1.0 2.0 0.00 0.00 0.00 94 1015.6
20221128095004 40 0.0 1.0 0.00 0.00 0.00 94 1015.6
20221128094504 40 0.0 1.0 0.00 0.00 0.00 94 1015.7
20221128094004 40 158 1.0 2.0 0.00 0.00 0.00 94 1015.7
20221128093544 40 158 1.0 2.0 0.00 0.00 0.00 94 1015.8
20221128093004 40 0.0 1.0 0.00 0.00 0.00 93 1015.8
20221128092524 40 225 1.0 2.0 0.00 0.00 0.00 94 1015.8
20221128092004 40 293 1.0 2.0 0.00 0.00 0.00 93 1015.9
20221128091504 40 203 1.0 2.0 0.00 0.00 0.00 94 1015.9
20221128091004 40 225 1.0 2.0 0.00 0.00 0.00 93 1015.9
20221128090507 41 0.0 1.0 0.00 0.00 0.00 93 1015.9
20221128090004 41 315 1.0 1.0 0.00 0.00 0.00 93 1015.9
20221128085524 41 0.0 1.0 0.00 0.00 0.00 93 1015.8
20221128085004 41 0.0 1.0 0.00 0.00 0.00 93 1015.8
20221128084504 41 0.0 2.0 0.00 0.00 0.00 93 1015.8
20221128084004 41 338 1.0 2.0 0.00 0.00 0.00 93 1015.9
20221128083544 41 315 1.0 2.0 0.00 0.00 0.00 93 1015.8
20221128083004 41 293 1.0 2.0 0.00 0.00 0.00 93 1015.8
20221128082504 42 0.0 1.0 0.00 0.00 0.00 93 1015.7
20221128082004 42 0.0 1.0 0.00 0.00 0.00 93 1015.9
20221128081524 42 0.0 1.0 0.00 0.00 0.00 93 1016.1
20221128081004 42 315 1.0 2.0 0.00 0.00 0.00 93 1016.3
20221128080504 42 0.0 1.0 0.00 0.00 0.00 93 1016.3
20221128080024 42 0.0 1.0 0.00 0.00 0.00 93 1016.3
20221128075503 42 180 1.0 2.0 0.00 0.00 0.00 93 1016.3
20221128075004 42 180 1.0 3.0 0.00 0.00 0.00 93 1016.4
20221128074503 42 0.0 1.0 0.00 0.00 0.00 93 1016.6
20221128074004 42 0.0 1.0 0.00 0.00 0.00 92 1016.8
20221128073503 42 315 1.0 1.0 0.00 0.00 0.00 92 1016.7
20221128073003 42 338 1.0 2.0 0.00 0.00 0.00 92 1016.7
20221128072503 42 338 1.0 1.0 0.00 0.00 0.00 92 1016.8
20221128072003 42 315 1.0 1.0 0.00 0.00 0.00 92 1016.7
20221128071503 43 0.0 1.0 0.00 0.00 0.00 92 1016.7
20221128071003 43 315 1.0 1.0 0.00 0.00 0.00 92 1016.7
20221128070503 43 0.0 1.0 0.00 0.00 0.00 92 1016.7
20221128070004 43 293 1.0 2.0 0.00 0.00 0.00 92 1016.8
20221128065503 43 293 1.0 2.0 0.00 0.00 0.00 91 1016.8
20221128065003 43 0.0 1.0 0.00 0.00 0.00 91 1016.9
20221128064508 43 248 1.0 1.0 0.00 0.00 0.00 91 1016.9
20221128064004 44 0.0 1.0 0.00 0.00 0.00 91 1016.9
20221128063523 44 0.0 2.0 0.00 0.00 0.00 91 1017.0
20221128063003 44 293 1.0 2.0 0.00 0.00 0.00 91 1017.0
20221128062503 44 225 1.0 2.0 0.00 0.00 0.00 91 1016.8
20221128062023 44 0.0 2.0 0.00 0.00 0.00 91 1016.8
20221128061504 44 0.0 2.0 0.00 0.00 0.00 91 1016.8
20221128061004 44 0.0 1.0 0.00 0.00 0.00 91 1016.7
20221128060511 44 0.0 1.0 0.00 0.00 0.00 91 1016.7
20221128060003 44 0.0 2.0 0.00 0.00 0.00 91 1016.7
20221128055503 44 180 1.0 2.0 0.00 0.00 0.00 91 1016.7
20221128055003 44 180 1.0 2.0 0.00 0.00 0.00 91 1016.8
20221128054503 44 0.0 1.0 0.00 0.00 0.00 91 1016.9
20221128054003 44 0.0 1.0 0.00 0.00 0.00 91 1016.9
20221128053503 45 0.0 1.0 0.00 0.00 0.00 91 1016.9
20221128053004 45 0.0 1.0 0.00 0.00 0.00 91 1016.9
20221128052503 45 270 1.0 2.0 0.00 0.00 0.00 91 1017.0
20221128052003 45 0.0 1.0 0.00 0.00 0.00 90 1016.9
20221128051503 45 0.0 1.0 0.00 0.00 0.00 90 1017.1
20221128051003 45 0.0 1.0 0.00 0.00 0.00 90 1017.0
20221128050503 45 0.0 1.0 0.00 0.00 0.00 90 1017.1
20221128050003 45 293 1.0 1.0 0.00 0.00 0.00 90 1017.2
20221128045503 46 0.0 1.0 0.00 0.00 0.00 90 1017.1
20221128045003 46 0.0 1.0 0.00 0.00 0.00 89 1017.2